sensor_id;sensor_type;location;lat;lon;timestamp;temperature;humidity
69335;SHT31;56477;52.742;15.242;2023-04-22T00:00:15;10.44;67.20
69335;SHT31;56477;52.742;15.242;2023-04-22T00:03:02;10.39;67.42
69335;SHT31;56477;52.742;15.242;2023-04-22T00:05:28;10.45;67.39
69335;SHT31;56477;52.742;15.242;2023-04-22T00:07:55;10.38;67.60
69335;SHT31;56477;52.742;15.242;2023-04-22T00:10:21;10.31;68.23
69335;SHT31;56477;52.742;15.242;2023-04-22T00:12:47;10.25;68.19
69335;SHT31;56477;52.742;15.242;2023-04-22T00:15:12;10.24;68.23
69335;SHT31;56477;52.742;15.242;2023-04-22T00:17:39;10.25;68.25
69335;SHT31;56477;52.742;15.242;2023-04-22T00:20:05;10.18;68.40
69335;SHT31;56477;52.742;15.242;2023-04-22T00:22:32;10.18;68.15
69335;SHT31;56477;52.742;15.242;2023-04-22T00:24:58;10.15;68.03
69335;SHT31;56477;52.742;15.242;2023-04-22T00:27:24;10.11;68.36
69335;SHT31;56477;52.742;15.242;2023-04-22T00:29:50;10.09;68.38
69335;SHT31;56477;52.742;15.242;2023-04-22T00:32:16;10.04;68.83
69335;SHT31;56477;52.742;15.242;2023-04-22T00:34:42;9.98;68.79
69335;SHT31;56477;52.742;15.242;2023-04-22T00:37:08;9.94;69.04
69335;SHT31;56477;52.742;15.242;2023-04-22T00:39:34;9.87;68.43
69335;SHT31;56477;52.742;15.242;2023-04-22T00:42:05;9.86;68.98
69335;SHT31;56477;52.742;15.242;2023-04-22T00:44:32;9.81;68.91
69335;SHT31;56477;52.742;15.242;2023-04-22T00:47:00;9.80;68.71
69335;SHT31;56477;52.742;15.242;2023-04-22T00:49:26;9.73;69.17
69335;SHT31;56477;52.742;15.242;2023-04-22T00:51:52;9.66;68.86
69335;SHT31;56477;52.742;15.242;2023-04-22T00:54:18;9.61;69.41
69335;SHT31;56477;52.742;15.242;2023-04-22T00:56:45;9.60;69.84
69335;SHT31;56477;52.742;15.242;2023-04-22T00:59:11;9.56;69.62
69335;SHT31;56477;52.742;15.242;2023-04-22T01:01:37;9.54;69.86
69335;SHT31;56477;52.742;15.242;2023-04-22T01:04:03;9.47;70.64
69335;SHT31;56477;52.742;15.242;2023-04-22T01:06:30;9.43;70.00
69335;SHT31;56477;52.742;15.242;2023-04-22T01:08:58;9.40;70.30
69335;SHT31;56477;52.742;15.242;2023-04-22T01:11:24;9.36;70.75
69335;SHT31;56477;52.742;15.242;2023-04-22T01:13:50;9.30;70.99
69335;SHT31;56477;52.742;15.242;2023-04-22T01:16:17;9.26;70.46
69335;SHT31;56477;52.742;15.242;2023-04-22T01:18:43;9.22;70.85
69335;SHT31;56477;52.742;15.242;2023-04-22T01:21:10;9.21;70.53
69335;SHT31;56477;52.742;15.242;2023-04-22T01:23:36;9.18;70.55
69335;SHT31;56477;52.742;15.242;2023-04-22T01:26:03;9.12;70.32
69335;SHT31;56477;52.742;15.242;2023-04-22T01:28:29;9.07;70.53
69335;SHT31;56477;52.742;15.242;2023-04-22T01:30:56;9.04;70.37
69335;SHT31;56477;52.742;15.242;2023-04-22T01:33:22;9.02;69.97
69335;SHT31;56477;52.742;15.242;2023-04-22T01:35:48;9.01;70.25
69335;SHT31;56477;52.742;15.242;2023-04-22T01:38:14;8.95;70.14
69335;SHT31;56477;52.742;15.242;2023-04-22T01:40:40;8.97;70.22
69335;SHT31;56477;52.742;15.242;2023-04-22T01:43:06;8.91;70.10
69335;SHT31;56477;52.742;15.242;2023-04-22T01:45:32;8.92;69.63
69335;SHT31;56477;52.742;15.242;2023-04-22T01:47:58;8.92;69.25
69335;SHT31;56477;52.742;15.242;2023-04-22T01:50:25;8.97;69.73
69335;SHT31;56477;52.742;15.242;2023-04-22T01:52:52;8.91;69.28
69335;SHT31;56477;52.742;15.242;2023-04-22T01:55:18;8.91;69.59
69335;SHT31;56477;52.742;15.242;2023-04-22T01:57:44;8.91;69.41
69335;SHT31;56477;52.742;15.242;2023-04-22T02:00:10;8.87;69.36
69335;SHT31;56477;52.742;15.242;2023-04-22T02:02:36;8.82;69.76
69335;SHT31;56477;52.742;15.242;2023-04-22T02:05:04;8.78;69.62
69335;SHT31;56477;52.742;15.242;2023-04-22T02:07:31;8.77;69.75
69335;SHT31;56477;52.742;15.242;2023-04-22T02:09:57;8.71;70.14
69335;SHT31;56477;52.742;15.242;2023-04-22T02:12:22;8.67;69.93
69335;SHT31;56477;52.742;15.242;2023-04-22T02:14:49;8.65;69.78
69335;SHT31;56477;52.742;15.242;2023-04-22T02:17:14;8.64;69.76
69335;SHT31;56477;52.742;15.242;2023-04-22T02:19:42;8.63;69.72
69335;SHT31;56477;52.742;15.242;2023-04-22T02:22:08;8.64;70.15
69335;SHT31;56477;52.742;15.242;2023-04-22T02:24:35;8.68;70.33
69335;SHT31;56477;52.742;15.242;2023-04-22T02:27:01;8.65;69.72
69335;SHT31;56477;52.742;15.242;2023-04-22T02:29:27;8.61;69.64
69335;SHT31;56477;52.742;15.242;2023-04-22T02:31:53;8.63;69.07
69335;SHT31;56477;52.742;15.242;2023-04-22T02:34:19;8.65;68.36
69335;SHT31;56477;52.742;15.242;2023-04-22T02:36:45;8.63;68.92
69335;SHT31;56477;52.742;15.242;2023-04-22T02:39:11;8.60;68.93
69335;SHT31;56477;52.742;15.242;2023-04-22T02:41:37;8.54;68.87
69335;SHT31;56477;52.742;15.242;2023-04-22T02:44:03;8.51;68.75
69335;SHT31;56477;52.742;15.242;2023-04-22T02:46:29;8.46;68.26
69335;SHT31;56477;52.742;15.242;2023-04-22T02:48:55;8.40;68.96
69335;SHT31;56477;52.742;15.242;2023-04-22T02:51:21;8.37;69.44
69335;SHT31;56477;52.742;15.242;2023-04-22T02:53:47;8.36;69.30
69335;SHT31;56477;52.742;15.242;2023-04-22T02:56:13;8.33;68.75
69335;SHT31;56477;52.742;15.242;2023-04-22T02:58:39;8.30;68.83
69335;SHT31;56477;52.742;15.242;2023-04-22T03:01:05;8.29;68.34
69335;SHT31;56477;52.742;15.242;2023-04-22T03:03:31;8.28;68.74
69335;SHT31;56477;52.742;15.242;2023-04-22T03:05:57;8.23;68.66
69335;SHT31;56477;52.742;15.242;2023-04-22T03:08:24;8.19;68.73
69335;SHT31;56477;52.742;15.242;2023-04-22T03:10:49;8.14;69.38
69335;SHT31;56477;52.742;15.242;2023-04-22T03:13:16;8.12;69.45
69335;SHT31;56477;52.742;15.242;2023-04-22T03:15:41;8.09;69.36
69335;SHT31;56477;52.742;15.242;2023-04-22T03:18:08;8.05;69.33
69335;SHT31;56477;52.742;15.242;2023-04-22T03:20:34;8.03;68.76
69335;SHT31;56477;52.742;15.242;2023-04-22T03:23:01;7.99;68.83
69335;SHT31;56477;52.742;15.242;2023-04-22T03:25:27;7.99;69.18
69335;SHT31;56477;52.742;15.242;2023-04-22T03:27:53;7.96;69.10
69335;SHT31;56477;52.742;15.242;2023-04-22T03:30:18;7.93;69.01
69335;SHT31;56477;52.742;15.242;2023-04-22T03:32:45;7.89;69.31
69335;SHT31;56477;52.742;15.242;2023-04-22T03:35:10;7.85;69.40
69335;SHT31;56477;52.742;15.242;2023-04-22T03:37:36;7.81;69.45
69335;SHT31;56477;52.742;15.242;2023-04-22T03:40:03;7.84;69.27
69335;SHT31;56477;52.742;15.242;2023-04-22T03:42:30;7.79;69.14
69335;SHT31;56477;52.742;15.242;2023-04-22T03:44:56;7.78;69.77
69335;SHT31;56477;52.742;15.242;2023-04-22T03:47:22;7.79;69.56
69335;SHT31;56477;52.742;15.242;2023-04-22T03:49:48;7.78;69.66
69335;SHT31;56477;52.742;15.242;2023-04-22T03:52:14;7.77;69.44
69335;SHT31;56477;52.742;15.242;2023-04-22T03:54:40;7.78;69.68
69335;SHT31;56477;52.742;15.242;2023-04-22T03:57:06;7.72;69.68
69335;SHT31;56477;52.742;15.242;2023-04-22T03:59:32;7.74;70.40
69335;SHT31;56477;52.742;15.242;2023-04-22T04:01:58;7.75;69.09
69335;SHT31;56477;52.742;15.242;2023-04-22T04:04:24;7.74;69.96
69335;SHT31;56477;52.742;15.242;2023-04-22T04:06:51;7.71;70.12
69335;SHT31;56477;52.742;15.242;2023-04-22T04:09:17;7.68;70.08
69335;SHT31;56477;52.742;15.242;2023-04-22T04:11:43;7.70;69.98
69335;SHT31;56477;52.742;15.242;2023-04-22T04:14:09;7.68;70.30
69335;SHT31;56477;52.742;15.242;2023-04-22T04:16:35;7.68;70.44
69335;SHT31;56477;52.742;15.242;2023-04-22T04:19:01;7.68;70.96
69335;SHT31;56477;52.742;15.242;2023-04-22T04:21:28;7.68;70.40
69335;SHT31;56477;52.742;15.242;2023-04-22T04:23:54;7.70;70.64
69335;SHT31;56477;52.742;15.242;2023-04-22T04:26:20;7.67;69.86
69335;SHT31;56477;52.742;15.242;2023-04-22T04:28:46;7.71;69.98
69335;SHT31;56477;52.742;15.242;2023-04-22T04:31:14;7.71;69.93
69335;SHT31;56477;52.742;15.242;2023-04-22T04:33:39;7.68;69.97
69335;SHT31;56477;52.742;15.242;2023-04-22T04:36:06;7.68;69.84
69335;SHT31;56477;52.742;15.242;2023-04-22T04:38:33;7.74;70.15
69335;SHT31;56477;52.742;15.242;2023-04-22T04:40:59;7.79;69.45
69335;SHT31;56477;52.742;15.242;2023-04-22T04:43:26;7.82;70.05
69335;SHT31;56477;52.742;15.242;2023-04-22T04:45:52;7.85;69.72
69335;SHT31;56477;52.742;15.242;2023-04-22T04:48:18;7.89;69.58
69335;SHT31;56477;52.742;15.242;2023-04-22T04:50:45;7.88;69.60
69335;SHT31;56477;52.742;15.242;2023-04-22T04:53:11;7.88;69.39
69335;SHT31;56477;52.742;15.242;2023-04-22T04:55:38;7.95;69.76
69335;SHT31;56477;52.742;15.242;2023-04-22T04:58:04;7.99;69.93
69335;SHT31;56477;52.742;15.242;2023-04-22T05:00:30;8.05;68.96
69335;SHT31;56477;52.742;15.242;2023-04-22T05:02:56;8.09;68.99
69335;SHT31;56477;52.742;15.242;2023-04-22T05:05:22;8.13;68.73
69335;SHT31;56477;52.742;15.242;2023-04-22T05:07:48;8.22;68.40
69335;SHT31;56477;52.742;15.242;2023-04-22T05:10:16;8.22;67.95
69335;SHT31;56477;52.742;15.242;2023-04-22T05:12:41;8.29;68.29
69335;SHT31;56477;52.742;15.242;2023-04-22T05:15:09;8.33;68.29
69335;SHT31;56477;52.742;15.242;2023-04-22T05:17:35;8.37;68.58
69335;SHT31;56477;52.742;15.242;2023-04-22T05:20:02;8.42;68.86
69335;SHT31;56477;52.742;15.242;2023-04-22T05:22:28;8.49;68.13
69335;SHT31;56477;52.742;15.242;2023-04-22T05:24:54;8.51;67.48
69335;SHT31;56477;52.742;15.242;2023-04-22T05:27:19;8.51;68.69
69335;SHT31;56477;52.742;15.242;2023-04-22T05:29:46;8.60;68.23
69335;SHT31;56477;52.742;15.242;2023-04-22T05:32:11;8.65;67.77
69335;SHT31;56477;52.742;15.242;2023-04-22T05:34:37;8.71;67.88
69335;SHT31;56477;52.742;15.242;2023-04-22T05:37:03;8.80;67.40
69335;SHT31;56477;52.742;15.242;2023-04-22T05:39:30;8.87;67.83
69335;SHT31;56477;52.742;15.242;2023-04-22T05:41:56;8.94;67.20
69335;SHT31;56477;52.742;15.242;2023-04-22T05:44:22;9.01;67.47
69335;SHT31;56477;52.742;15.242;2023-04-22T05:46:48;9.05;67.12
69335;SHT31;56477;52.742;15.242;2023-04-22T05:49:14;9.11;67.56
69335;SHT31;56477;52.742;15.242;2023-04-22T05:51:41;9.21;66.94
69335;SHT31;56477;52.742;15.242;2023-04-22T05:54:07;9.30;66.67
69335;SHT31;56477;52.742;15.242;2023-04-22T05:56:33;9.30;66.96
69335;SHT31;56477;52.742;15.242;2023-04-22T05:58:59;9.44;66.76
69335;SHT31;56477;52.742;15.242;2023-04-22T06:01:25;9.54;66.53
69335;SHT31;56477;52.742;15.242;2023-04-22T06:03:51;9.64;66.42
69335;SHT31;56477;52.742;15.242;2023-04-22T06:06:17;9.71;66.52
69335;SHT31;56477;52.742;15.242;2023-04-22T06:08:43;9.81;66.80
69335;SHT31;56477;52.742;15.242;2023-04-22T06:11:09;9.94;66.23
69335;SHT31;56477;52.742;15.242;2023-04-22T06:13:35;10.01;66.37
69335;SHT31;56477;52.742;15.242;2023-04-22T06:16:01;10.14;66.18
69335;SHT31;56477;52.742;15.242;2023-04-22T06:18:29;10.31;65.50
69335;SHT31;56477;52.742;15.242;2023-04-22T06:20:57;10.39;64.87
69335;SHT31;56477;52.742;15.242;2023-04-22T06:23:23;10.55;65.15
69335;SHT31;56477;52.742;15.242;2023-04-22T06:25:48;10.72;64.00
69335;SHT31;56477;52.742;15.242;2023-04-22T06:28:15;10.99;64.19
69335;SHT31;56477;52.742;15.242;2023-04-22T06:30:40;11.21;63.11
69335;SHT31;56477;52.742;15.242;2023-04-22T06:33:07;11.93;62.12
69335;SHT31;56477;52.742;15.242;2023-04-22T06:35:32;12.62;59.48
69335;SHT31;56477;52.742;15.242;2023-04-22T06:37:58;13.98;56.60
69335;SHT31;56477;52.742;15.242;2023-04-22T06:40:24;15.21;53.25
69335;SHT31;56477;52.742;15.242;2023-04-22T06:42:50;15.54;51.38
69335;SHT31;56477;52.742;15.242;2023-04-22T06:45:16;15.20;51.38
69335;SHT31;56477;52.742;15.242;2023-04-22T06:47:42;14.83;53.28
69335;SHT31;56477;52.742;15.242;2023-04-22T06:50:09;15.12;52.95
69335;SHT31;56477;52.742;15.242;2023-04-22T06:52:36;15.81;51.33
69335;SHT31;56477;52.742;15.242;2023-04-22T06:55:02;16.47;49.28
69335;SHT31;56477;52.742;15.242;2023-04-22T06:57:29;16.92;48.21
69335;SHT31;56477;52.742;15.242;2023-04-22T06:59:55;17.44;47.32
69335;SHT31;56477;52.742;15.242;2023-04-22T07:02:21;16.99;47.88
69335;SHT31;56477;52.742;15.242;2023-04-22T07:04:47;17.40;47.52
69335;SHT31;56477;52.742;15.242;2023-04-22T07:07:13;17.74;46.61
69335;SHT31;56477;52.742;15.242;2023-04-22T07:09:39;17.71;47.27
69335;SHT31;56477;52.742;15.242;2023-04-22T07:12:05;18.22;45.78
69335;SHT31;56477;52.742;15.242;2023-04-22T07:14:31;17.73;45.78
69335;SHT31;56477;52.742;15.242;2023-04-22T07:16:58;17.94;46.79
69335;SHT31;56477;52.742;15.242;2023-04-22T07:19:25;17.79;47.01
69335;SHT31;56477;52.742;15.242;2023-04-22T07:21:51;17.40;47.46
69335;SHT31;56477;52.742;15.242;2023-04-22T07:24:17;16.93;48.39
69335;SHT31;56477;52.742;15.242;2023-04-22T07:26:43;17.06;48.20
69335;SHT31;56477;52.742;15.242;2023-04-22T07:29:09;17.60;47.77
69335;SHT31;56477;52.742;15.242;2023-04-22T07:31:37;17.47;47.74
69335;SHT31;56477;52.742;15.242;2023-04-22T07:34:03;18.42;46.59
69335;SHT31;56477;52.742;15.242;2023-04-22T07:36:30;19.38;45.99
69335;SHT31;56477;52.742;15.242;2023-04-22T07:38:58;19.43;43.92
69335;SHT31;56477;52.742;15.242;2023-04-22T07:41:24;20.04;43.61
69335;SHT31;56477;52.742;15.242;2023-04-22T07:43:50;20.45;42.41
69335;SHT31;56477;52.742;15.242;2023-04-22T07:46:16;19.07;45.05
69335;SHT31;56477;52.742;15.242;2023-04-22T07:48:42;19.36;44.28
69335;SHT31;56477;52.742;15.242;2023-04-22T07:51:08;19.89;43.53
69335;SHT31;56477;52.742;15.242;2023-04-22T07:53:34;18.78;45.44
69335;SHT31;56477;52.742;15.242;2023-04-22T07:56:01;18.24;46.57
69335;SHT31;56477;52.742;15.242;2023-04-22T07:58:27;18.35;46.35
69335;SHT31;56477;52.742;15.242;2023-04-22T08:00:53;18.53;47.04
69335;SHT31;56477;52.742;15.242;2023-04-22T08:03:19;18.81;46.25
69335;SHT31;56477;52.742;15.242;2023-04-22T08:05:45;18.61;46.18
69335;SHT31;56477;52.742;15.242;2023-04-22T08:08:11;18.88;46.04
69335;SHT31;56477;52.742;15.242;2023-04-22T08:10:37;18.25;46.79
69335;SHT31;56477;52.742;15.242;2023-04-22T08:13:03;19.14;46.70
69335;SHT31;56477;52.742;15.242;2023-04-22T08:15:29;19.03;46.32
69335;SHT31;56477;52.742;15.242;2023-04-22T08:17:55;19.21;44.24
69335;SHT31;56477;52.742;15.242;2023-04-22T08:20:22;19.42;44.78
69335;SHT31;56477;52.742;15.242;2023-04-22T08:22:48;20.65;43.29
69335;SHT31;56477;52.742;15.242;2023-04-22T08:25:16;20.71;42.66
69335;SHT31;56477;52.742;15.242;2023-04-22T08:27:42;21.47;41.88
69335;SHT31;56477;52.742;15.242;2023-04-22T08:30:08;22.43;40.56
69335;SHT31;56477;52.742;15.242;2023-04-22T08:32:34;22.77;40.50
69335;SHT31;56477;52.742;15.242;2023-04-22T08:35:00;22.19;40.07
69335;SHT31;56477;52.742;15.242;2023-04-22T08:37:28;21.46;42.10
69335;SHT31;56477;52.742;15.242;2023-04-22T08:39:54;23.22;39.05
69335;SHT31;56477;52.742;15.242;2023-04-22T08:42:20;23.66;37.93
69335;SHT31;56477;52.742;15.242;2023-04-22T08:44:48;22.39;40.71
69335;SHT31;56477;52.742;15.242;2023-04-22T08:47:14;22.59;40.23
69335;SHT31;56477;52.742;15.242;2023-04-22T08:49:42;22.44;39.50
69335;SHT31;56477;52.742;15.242;2023-04-22T08:52:08;22.63;39.48
69335;SHT31;56477;52.742;15.242;2023-04-22T08:54:36;23.15;38.99
69335;SHT31;56477;52.742;15.242;2023-04-22T08:57:03;22.47;39.37
69335;SHT31;56477;52.742;15.242;2023-04-22T08:59:30;22.81;38.06
69335;SHT31;56477;52.742;15.242;2023-04-22T09:01:56;23.53;37.83
69335;SHT31;56477;52.742;15.242;2023-04-22T09:04:23;22.65;37.80
69335;SHT31;56477;52.742;15.242;2023-04-22T09:06:49;22.54;39.71
69335;SHT31;56477;52.742;15.242;2023-04-22T09:09:15;22.56;38.56
69335;SHT31;56477;52.742;15.242;2023-04-22T09:11:41;22.94;38.78
69335;SHT31;56477;52.742;15.242;2023-04-22T09:14:08;23.11;37.63
69335;SHT31;56477;52.742;15.242;2023-04-22T09:16:39;23.58;37.55
69335;SHT31;56477;52.742;15.242;2023-04-22T09:19:10;23.62;37.21
69335;SHT31;56477;52.742;15.242;2023-04-22T09:21:36;22.87;38.00
69335;SHT31;56477;52.742;15.242;2023-04-22T09:24:06;21.94;39.00
69335;SHT31;56477;52.742;15.242;2023-04-22T09:26:32;22.05;39.48
69335;SHT31;56477;52.742;15.242;2023-04-22T09:28:59;22.83;39.16
69335;SHT31;56477;52.742;15.242;2023-04-22T09:31:28;22.67;38.75
69335;SHT31;56477;52.742;15.242;2023-04-22T09:33:56;22.98;38.13
69335;SHT31;56477;52.742;15.242;2023-04-22T09:36:25;22.87;38.05
69335;SHT31;56477;52.742;15.242;2023-04-22T09:38:53;23.59;37.33
69335;SHT31;56477;52.742;15.242;2023-04-22T09:41:38;23.15;35.52
69335;SHT31;56477;52.742;15.242;2023-04-22T09:44:12;23.14;35.42
69335;SHT31;56477;52.742;15.242;2023-04-22T09:46:41;23.11;35.65
69335;SHT31;56477;52.742;15.242;2023-04-22T09:49:08;23.55;34.57
69335;SHT31;56477;52.742;15.242;2023-04-22T09:51:34;23.35;34.19
69335;SHT31;56477;52.742;15.242;2023-04-22T09:54:02;22.25;34.08
69335;SHT31;56477;52.742;15.242;2023-04-22T09:59:22;22.68;33.11
69335;SHT31;56477;52.742;15.242;2023-04-22T10:01:54;22.56;33.25
69335;SHT31;56477;52.742;15.242;2023-04-22T10:04:21;22.33;34.01
69335;SHT31;56477;52.742;15.242;2023-04-22T10:06:50;22.53;35.37
69335;SHT31;56477;52.742;15.242;2023-04-22T10:09:18;22.35;35.40
69335;SHT31;56477;52.742;15.242;2023-04-22T10:11:45;21.95;35.76
69335;SHT31;56477;52.742;15.242;2023-04-22T10:14:12;22.86;34.04
69335;SHT31;56477;52.742;15.242;2023-04-22T10:16:42;22.61;34.64
69335;SHT31;56477;52.742;15.242;2023-04-22T10:19:13;22.95;33.83
69335;SHT31;56477;52.742;15.242;2023-04-22T10:21:42;23.49;32.21
69335;SHT31;56477;52.742;15.242;2023-04-22T10:24:17;23.41;32.28
69335;SHT31;56477;52.742;15.242;2023-04-22T10:26:52;23.51;32.80
69335;SHT31;56477;52.742;15.242;2023-04-22T10:29:20;23.58;32.28
69335;SHT31;56477;52.742;15.242;2023-04-22T10:34:30;23.90;31.48
69335;SHT31;56477;52.742;15.242;2023-04-22T10:37:02;23.53;31.98
69335;SHT31;56477;52.742;15.242;2023-04-22T10:39:30;23.86;31.25
69335;SHT31;56477;52.742;15.242;2023-04-22T10:47:28;24.54;30.19
69335;SHT31;56477;52.742;15.242;2023-04-22T10:52:35;23.90;30.59
69335;SHT31;56477;52.742;15.242;2023-04-22T10:55:02;23.87;31.48
69335;SHT31;56477;52.742;15.242;2023-04-22T10:57:33;24.38;29.86
69335;SHT31;56477;52.742;15.242;2023-04-22T11:00:22;24.07;31.27
69335;SHT31;56477;52.742;15.242;2023-04-22T11:02:56;24.57;30.52
69335;SHT31;56477;52.742;15.242;2023-04-22T11:05:31;24.65;30.08
69335;SHT31;56477;52.742;15.242;2023-04-22T11:08:13;24.90;29.86
69335;SHT31;56477;52.742;15.242;2023-04-22T11:10:46;25.31;29.20
69335;SHT31;56477;52.742;15.242;2023-04-22T11:13:17;25.00;28.37
69335;SHT31;56477;52.742;15.242;2023-04-22T11:15:47;25.33;29.31
69335;SHT31;56477;52.742;15.242;2023-04-22T11:18:19;25.54;29.42
69335;SHT31;56477;52.742;15.242;2023-04-22T11:20:47;26.54;27.00
69335;SHT31;56477;52.742;15.242;2023-04-22T11:23:19;26.22;27.29
69335;SHT31;56477;52.742;15.242;2023-04-22T11:25:45;26.64;27.57
69335;SHT31;56477;52.742;15.242;2023-04-22T11:28:11;26.43;27.31
69335;SHT31;56477;52.742;15.242;2023-04-22T11:30:37;25.20;28.61
69335;SHT31;56477;52.742;15.242;2023-04-22T11:33:03;24.97;28.92
69335;SHT31;56477;52.742;15.242;2023-04-22T11:35:32;24.65;29.33
69335;SHT31;56477;52.742;15.242;2023-04-22T11:38:00;24.85;29.62
69335;SHT31;56477;52.742;15.242;2023-04-22T11:40:32;25.23;28.03
69335;SHT31;56477;52.742;15.242;2023-04-22T11:43:00;25.40;28.05
69335;SHT31;56477;52.742;15.242;2023-04-22T11:45:32;25.68;26.95
69335;SHT31;56477;52.742;15.242;2023-04-22T11:48:01;25.44;27.57
69335;SHT31;56477;52.742;15.242;2023-04-22T11:50:30;26.32;27.21
69335;SHT31;56477;52.742;15.242;2023-04-22T11:52:57;26.70;26.59
69335;SHT31;56477;52.742;15.242;2023-04-22T11:55:32;26.15;26.75
69335;SHT31;56477;52.742;15.242;2023-04-22T11:58:13;26.53;26.41
69335;SHT31;56477;52.742;15.242;2023-04-22T12:00:42;26.67;26.04
69335;SHT31;56477;52.742;15.242;2023-04-22T12:08:12;26.31;27.80
69335;SHT31;56477;52.742;15.242;2023-04-22T12:10:44;26.70;26.44
69335;SHT31;56477;52.742;15.242;2023-04-22T12:13:24;26.81;25.75
69335;SHT31;56477;52.742;15.242;2023-04-22T12:15:59;26.91;27.36
69335;SHT31;56477;52.742;15.242;2023-04-22T12:18:36;27.80;26.24
69335;SHT31;56477;52.742;15.242;2023-04-22T12:26:19;26.54;26.64
69335;SHT31;56477;52.742;15.242;2023-04-22T12:28:46;26.65;25.87
69335;SHT31;56477;52.742;15.242;2023-04-22T12:31:13;26.76;26.27
69335;SHT31;56477;52.742;15.242;2023-04-22T12:33:39;27.46;25.34
69335;SHT31;56477;52.742;15.242;2023-04-22T12:36:06;26.57;28.57
69335;SHT31;56477;52.742;15.242;2023-04-22T12:38:32;26.49;27.25
69335;SHT31;56477;52.742;15.242;2023-04-22T12:40:58;27.28;26.23
69335;SHT31;56477;52.742;15.242;2023-04-22T12:43:24;26.73;26.59
69335;SHT31;56477;52.742;15.242;2023-04-22T12:45:51;26.79;26.67
69335;SHT31;56477;52.742;15.242;2023-04-22T12:48:16;27.34;26.78
69335;SHT31;56477;52.742;15.242;2023-04-22T12:50:43;26.87;26.68
69335;SHT31;56477;52.742;15.242;2023-04-22T12:53:09;27.43;26.70
69335;SHT31;56477;52.742;15.242;2023-04-22T12:55:35;27.55;25.28
69335;SHT31;56477;52.742;15.242;2023-04-22T12:58:01;27.07;25.54
69335;SHT31;56477;52.742;15.242;2023-04-22T13:00:29;26.80;25.19
69335;SHT31;56477;52.742;15.242;2023-04-22T13:02:55;26.46;26.48
69335;SHT31;56477;52.742;15.242;2023-04-22T13:05:22;27.35;25.82
69335;SHT31;56477;52.742;15.242;2023-04-22T13:07:48;27.04;23.24
69335;SHT31;56477;52.742;15.242;2023-04-22T13:10:15;26.05;24.76
69335;SHT31;56477;52.742;15.242;2023-04-22T13:12:42;25.99;25.54
69335;SHT31;56477;52.742;15.242;2023-04-22T13:15:09;26.05;26.06
69335;SHT31;56477;52.742;15.242;2023-04-22T13:17:36;26.37;25.91
69335;SHT31;56477;52.742;15.242;2023-04-22T13:20:04;25.68;26.07
69335;SHT31;56477;52.742;15.242;2023-04-22T13:22:30;25.16;26.15
69335;SHT31;56477;52.742;15.242;2023-04-22T13:24:56;25.88;26.56
69335;SHT31;56477;52.742;15.242;2023-04-22T13:27:22;25.63;26.77
69335;SHT31;56477;52.742;15.242;2023-04-22T13:29:49;25.94;26.89
69335;SHT31;56477;52.742;15.242;2023-04-22T13:32:15;26.67;24.87
69335;SHT31;56477;52.742;15.242;2023-04-22T13:34:43;26.50;26.57
69335;SHT31;56477;52.742;15.242;2023-04-22T13:37:09;27.16;25.39
69335;SHT31;56477;52.742;15.242;2023-04-22T13:39:35;26.69;26.26
69335;SHT31;56477;52.742;15.242;2023-04-22T13:42:01;27.15;24.47
69335;SHT31;56477;52.742;15.242;2023-04-22T13:44:28;27.24;23.33
69335;SHT31;56477;52.742;15.242;2023-04-22T13:46:54;26.23;25.38
69335;SHT31;56477;52.742;15.242;2023-04-22T13:49:20;26.47;25.44
69335;SHT31;56477;52.742;15.242;2023-04-22T13:51:46;27.21;24.80
69335;SHT31;56477;52.742;15.242;2023-04-22T13:54:12;27.71;24.69
69335;SHT31;56477;52.742;15.242;2023-04-22T13:56:38;27.71;23.84
69335;SHT31;56477;52.742;15.242;2023-04-22T13:59:04;27.67;24.68
69335;SHT31;56477;52.742;15.242;2023-04-22T14:01:30;27.73;24.07
69335;SHT31;56477;52.742;15.242;2023-04-22T14:03:56;26.76;24.24
69335;SHT31;56477;52.742;15.242;2023-04-22T14:06:22;26.67;23.46
69335;SHT31;56477;52.742;15.242;2023-04-22T14:08:48;25.81;24.38
69335;SHT31;56477;52.742;15.242;2023-04-22T14:11:14;26.60;23.73
69335;SHT31;56477;52.742;15.242;2023-04-22T14:13:40;26.19;24.29
69335;SHT31;56477;52.742;15.242;2023-04-22T14:16:07;26.40;24.39
69335;SHT31;56477;52.742;15.242;2023-04-22T14:18:36;26.81;23.91
69335;SHT31;56477;52.742;15.242;2023-04-22T14:21:03;26.88;23.67
69335;SHT31;56477;52.742;15.242;2023-04-22T14:23:32;26.59;23.77
69335;SHT31;56477;52.742;15.242;2023-04-22T14:25:58;26.83;24.14
69335;SHT31;56477;52.742;15.242;2023-04-22T14:28:25;26.74;23.82
69335;SHT31;56477;52.742;15.242;2023-04-22T14:30:51;25.95;24.42
69335;SHT31;56477;52.742;15.242;2023-04-22T14:33:18;26.16;24.35
69335;SHT31;56477;52.742;15.242;2023-04-22T14:35:44;26.76;24.67
69335;SHT31;56477;52.742;15.242;2023-04-22T14:38:11;26.71;24.44
69335;SHT31;56477;52.742;15.242;2023-04-22T14:40:37;26.70;24.92
69335;SHT31;56477;52.742;15.242;2023-04-22T14:43:05;27.15;24.75
69335;SHT31;56477;52.742;15.242;2023-04-22T14:45:32;27.27;24.99
69335;SHT31;56477;52.742;15.242;2023-04-22T14:47:59;26.57;26.17
69335;SHT31;56477;52.742;15.242;2023-04-22T14:50:25;26.77;25.85
69335;SHT31;56477;52.742;15.242;2023-04-22T14:52:52;26.56;24.89
69335;SHT31;56477;52.742;15.242;2023-04-22T14:55:18;26.49;24.76
69335;SHT31;56477;52.742;15.242;2023-04-22T14:57:45;26.35;24.89
69335;SHT31;56477;52.742;15.242;2023-04-22T15:00:12;26.18;25.16
69335;SHT31;56477;52.742;15.242;2023-04-22T15:02:39;25.57;25.28
69335;SHT31;56477;52.742;15.242;2023-04-22T15:05:05;25.81;24.93
69335;SHT31;56477;52.742;15.242;2023-04-22T15:07:31;26.06;25.09
69335;SHT31;56477;52.742;15.242;2023-04-22T15:09:57;25.28;25.51
69335;SHT31;56477;52.742;15.242;2023-04-22T15:12:27;24.65;26.30
69335;SHT31;56477;52.742;15.242;2023-04-22T15:14:53;24.99;26.68
69335;SHT31;56477;52.742;15.242;2023-04-22T15:17:19;24.86;27.37
69335;SHT31;56477;52.742;15.242;2023-04-22T15:19:45;24.52;27.55
69335;SHT31;56477;52.742;15.242;2023-04-22T15:22:11;24.28;28.66
69335;SHT31;56477;52.742;15.242;2023-04-22T15:24:37;23.94;28.88
69335;SHT31;56477;52.742;15.242;2023-04-22T15:27:03;23.25;29.23
69335;SHT31;56477;52.742;15.242;2023-04-22T15:29:29;23.33;29.77
69335;SHT31;56477;52.742;15.242;2023-04-22T15:31:57;23.41;30.85
69335;SHT31;56477;52.742;15.242;2023-04-22T15:34:23;23.28;29.37
69335;SHT31;56477;52.742;15.242;2023-04-22T15:36:49;22.88;30.04
69335;SHT31;56477;52.742;15.242;2023-04-22T15:39:15;22.94;30.58
69335;SHT31;56477;52.742;15.242;2023-04-22T15:41:41;22.97;30.56
69335;SHT31;56477;52.742;15.242;2023-04-22T15:44:08;22.57;30.98